sensor_id;sensor_type;location;lat;lon;timestamp;pressure;altitude;pressure_sealevel;temperature;humidity
71059;BME280;70265;47.576;19.270;2023-11-22T00:00:13;98525.59;;;2.53;100.00
71059;BME280;70265;47.576;19.270;2023-11-22T00:01:14;98526.97;;;2.46;100.00
71059;BME280;70265;47.576;19.270;2023-11-22T00:02:19;98522.97;;;2.42;100.00
71059;BME280;70265;47.576;19.270;2023-11-22T00:03:20;98526.91;;;2.35;100.00
71059;BME280;70265;47.576;19.270;2023-11-22T00:04:24;98520.72;;;2.38;100.00
71059;BME280;70265;47.576;19.270;2023-11-22T00:05:28;98524.31;;;2.35;100.00
71059;BME280;70265;47.576;19.270;2023-11-22T00:06:29;98521.34;;;2.29;100.00
71059;BME280;70265;47.576;19.270;2023-11-22T00:07:33;98523.13;;;2.28;100.00
71059;BME280;70265;47.576;19.270;2023-11-22T00:08:34;98521.97;;;2.32;100.00
71059;BME280;70265;47.576;19.270;2023-11-22T00:09:37;98521.78;;;2.23;100.00
71059;BME280;70265;47.576;19.270;2023-11-22T00:10:39;98523.28;;;2.14;100.00
71059;BME280;70265;47.576;19.270;2023-11-22T00:11:42;98528.13;;;2.19;100.00
71059;BME280;70265;47.576;19.270;2023-11-22T00:12:43;98519.53;;;2.18;100.00
71059;BME280;70265;47.576;19.270;2023-11-22T00:13:47;98528.94;;;2.19;100.00
71059;BME280;70265;47.576;19.270;2023-11-22T00:14:49;98536.28;;;2.25;100.00
71059;BME280;70265;47.576;19.270;2023-11-22T00:15:53;98532.75;;;2.26;100.00
71059;BME280;70265;47.576;19.270;2023-11-22T00:16:54;98535.84;;;2.31;100.00
71059;BME280;70265;47.576;19.270;2023-11-22T00:17:58;98532.25;;;2.21;100.00
71059;BME280;70265;47.576;19.270;2023-11-22T00:19:03;98536.94;;;2.16;100.00
71059;BME280;70265;47.576;19.270;2023-11-22T00:20:11;98535.56;;;2.23;100.00
71059;BME280;70265;47.576;19.270;2023-11-22T00:21:12;98539.81;;;2.24;100.00
71059;BME280;70265;47.576;19.270;2023-11-22T00:22:16;98539.91;;;2.23;100.00
71059;BME280;70265;47.576;19.270;2023-11-22T00:23:17;98545.00;;;2.24;100.00
71059;BME280;70265;47.576;19.270;2023-11-22T00:24:18;98545.00;;;2.24;100.00
71059;BME280;70265;47.576;19.270;2023-11-22T00:25:21;98544.88;;;2.26;100.00
71059;BME280;70265;47.576;19.270;2023-11-22T00:26:23;98540.00;;;2.21;100.00
71059;BME280;70265;47.576;19.270;2023-11-22T00:27:26;98548.38;;;2.25;100.00
71059;BME280;70265;47.576;19.270;2023-11-22T00:28:28;98544.16;;;2.24;100.00
71059;BME280;70265;47.576;19.270;2023-11-22T00:29:29;98544.16;;;2.24;100.00
71059;BME280;70265;47.576;19.270;2023-11-22T00:30:32;98546.84;;;2.22;100.00
71059;BME280;70265;47.576;19.270;2023-11-22T00:31:33;98543.84;;;2.16;100.00
71059;BME280;70265;47.576;19.270;2023-11-22T00:32:37;98546.22;;;2.19;100.00
71059;BME280;70265;47.576;19.270;2023-11-22T00:33:38;98548.94;;;2.17;100.00
71059;BME280;70265;47.576;19.270;2023-11-22T00:34:42;98547.28;;;2.16;100.00
71059;BME280;70265;47.576;19.270;2023-11-22T00:35:46;98546.44;;;2.16;100.00
71059;BME280;70265;47.576;19.270;2023-11-22T00:36:50;98546.44;;;2.16;100.00
71059;BME280;70265;47.576;19.270;2023-11-22T00:37:51;98543.03;;;2.15;100.00
71059;BME280;70265;47.576;19.270;2023-11-22T00:38:55;98548.09;;;2.17;100.00
71059;BME280;70265;47.576;19.270;2023-11-22T00:39:56;98542.09;;;2.16;100.00
71059;BME280;70265;47.576;19.270;2023-11-22T00:41:01;98549.03;;;2.16;100.00
71059;BME280;70265;47.576;19.270;2023-11-22T00:42:03;98541.28;;;2.16;100.00
71059;BME280;70265;47.576;19.270;2023-11-22T00:43:07;98536.31;;;2.13;100.00
71059;BME280;70265;47.576;19.270;2023-11-22T00:44:09;98534.56;;;2.13;100.00
71059;BME280;70265;47.576;19.270;2023-11-22T00:45:13;98534.56;;;2.13;100.00
71059;BME280;70265;47.576;19.270;2023-11-22T00:46:14;98539.72;;;2.13;100.00
71059;BME280;70265;47.576;19.270;2023-11-22T00:47:18;98541.81;;;2.08;100.00
71059;BME280;70265;47.576;19.270;2023-11-22T00:48:19;98533.22;;;2.08;100.00
71059;BME280;70265;47.576;19.270;2023-11-22T00:49:23;98540.47;;;2.02;100.00
71059;BME280;70265;47.576;19.270;2023-11-22T00:50:24;98544.34;;;1.97;100.00
71059;BME280;70265;47.576;19.270;2023-11-22T00:51:30;98541.75;;;1.97;100.00
71059;BME280;70265;47.576;19.270;2023-11-22T00:52:32;98546.19;;;1.95;100.00
71059;BME280;70265;47.576;19.270;2023-11-22T00:53:35;98541.84;;;1.95;100.00
71059;BME280;70265;47.576;19.270;2023-11-22T00:54:36;98542.16;;;1.91;100.00
71059;BME280;70265;47.576;19.270;2023-11-22T00:55:40;98541.22;;;1.92;100.00
71059;BME280;70265;47.576;19.270;2023-11-22T00:56:42;98535.13;;;1.93;100.00
71059;BME280;70265;47.576;19.270;2023-11-22T00:57:46;98540.41;;;1.91;100.00
71059;BME280;70265;47.576;19.270;2023-11-22T00:58:47;98546.41;;;1.92;100.00
71059;BME280;70265;47.576;19.270;2023-11-22T00:59:51;98536.28;;;1.89;100.00
71059;BME280;70265;47.576;19.270;2023-11-22T01:00:53;98539.28;;;1.83;100.00
71059;BME280;70265;47.576;19.270;2023-11-22T01:01:57;98535.56;;;1.87;100.00
71059;BME280;70265;47.576;19.270;2023-11-22T01:02:58;98540.72;;;1.87;100.00
71059;BME280;70265;47.576;19.270;2023-11-22T01:04:01;98538.16;;;1.87;100.00
71059;BME280;70265;47.576;19.270;2023-11-22T01:05:04;98537.84;;;1.79;100.00
71059;BME280;70265;47.576;19.270;2023-11-22T01:06:08;98544.28;;;1.73;100.00
71059;BME280;70265;47.576;19.270;2023-11-22T01:07:13;98543.94;;;1.78;100.00
71059;BME280;70265;47.576;19.270;2023-11-22T01:08:16;98544.06;;;1.76;100.00
71059;BME280;70265;47.576;19.270;2023-11-22T01:09:17;98547.38;;;1.66;100.00
71059;BME280;70265;47.576;19.270;2023-11-22T01:10:19;98551.94;;;1.62;100.00
71059;BME280;70265;47.576;19.270;2023-11-22T01:11:23;98550.16;;;1.63;100.00
71059;BME280;70265;47.576;19.270;2023-11-22T01:12:24;98550.47;;;1.58;100.00
71059;BME280;70265;47.576;19.270;2023-11-22T01:13:27;98545.41;;;1.57;100.00
71059;BME280;70265;47.576;19.270;2023-11-22T01:14:29;98557.09;;;1.49;100.00
71059;BME280;70265;47.576;19.270;2023-11-22T01:15:32;98548.63;;;1.47;100.00
71059;BME280;70265;47.576;19.270;2023-11-22T01:16:33;98550.91;;;1.39;100.00
71059;BME280;70265;47.576;19.270;2023-11-22T01:17:37;98554.41;;;1.38;100.00
71059;BME280;70265;47.576;19.270;2023-11-22T01:18:39;98554.63;;;1.35;100.00
71059;BME280;70265;47.576;19.270;2023-11-22T01:19:43;98551.09;;;1.36;100.00
71059;BME280;70265;47.576;19.270;2023-11-22T01:20:44;98556.66;;;1.30;100.00
71059;BME280;70265;47.576;19.270;2023-11-22T01:21:48;98556.88;;;1.27;100.00
71059;BME280;70265;47.576;19.270;2023-11-22T01:22:52;98563.69;;;1.16;100.00
71059;BME280;70265;47.576;19.270;2023-11-22T01:23:56;98561.72;;;1.19;100.00
71059;BME280;70265;47.576;19.270;2023-11-22T01:24:57;98560.59;;;1.23;100.00
71059;BME280;70265;47.576;19.270;2023-11-22T01:26:01;98568.88;;;1.28;100.00
71059;BME280;70265;47.576;19.270;2023-11-22T01:27:04;98563.38;;;1.33;100.00
71059;BME280;70265;47.576;19.270;2023-11-22T01:28:08;98562.38;;;1.35;100.00
71059;BME280;70265;47.576;19.270;2023-11-22T01:29:11;98561.13;;;1.28;100.00
71059;BME280;70265;47.576;19.270;2023-11-22T01:30:15;98560.00;;;1.32;100.00
71059;BME280;70265;47.576;19.270;2023-11-22T01:31:16;98568.66;;;1.31;100.00
71059;BME280;70265;47.576;19.270;2023-11-22T01:32:21;98568.16;;;1.39;100.00
71059;BME280;70265;47.576;19.270;2023-11-22T01:33:22;98566.91;;;1.44;100.00
71059;BME280;70265;47.576;19.270;2023-11-22T01:34:27;98570.63;;;1.40;100.00
71059;BME280;70265;47.576;19.270;2023-11-22T01:35:30;98568.25;;;1.37;100.00
71059;BME280;70265;47.576;19.270;2023-11-22T01:36:34;98567.84;;;1.43;100.00
71059;BME280;70265;47.576;19.270;2023-11-22T01:37:35;98576.00;;;1.50;100.00
71059;BME280;70265;47.576;19.270;2023-11-22T01:38:39;98573.03;;;1.56;100.00
71059;BME280;70265;47.576;19.270;2023-11-22T01:39:45;98573.53;;;1.48;100.00
71059;BME280;70265;47.576;19.270;2023-11-22T01:40:47;98581.16;;;1.50;100.00
71059;BME280;70265;47.576;19.270;2023-11-22T01:41:51;98580.16;;;1.52;100.00
71059;BME280;70265;47.576;19.270;2023-11-22T01:42:52;98589.75;;;1.50;100.00
71059;BME280;70265;47.576;19.270;2023-11-22T01:43:56;98584.69;;;1.49;100.00
71059;BME280;70265;47.576;19.270;2023-11-22T01:44:58;98585.81;;;1.45;100.00
71059;BME280;70265;47.576;19.270;2023-11-22T01:45:59;98594.28;;;1.47;100.00
71059;BME280;70265;47.576;19.270;2023-11-22T01:47:04;98590.16;;;1.44;100.00
71059;BME280;70265;47.576;19.270;2023-11-22T01:48:06;98594.09;;;1.37;100.00
71059;BME280;70265;47.576;19.270;2023-11-22T01:49:09;98590.88;;;1.46;100.00
71059;BME280;70265;47.576;19.270;2023-11-22T01:50:13;98593.16;;;1.51;100.00
71059;BME280;70265;47.576;19.270;2023-11-22T01:51:15;98601.22;;;1.34;100.00
71059;BME280;70265;47.576;19.270;2023-11-22T01:52:16;98592.94;;;1.29;100.00
71059;BME280;70265;47.576;19.270;2023-11-22T01:53:20;98589.66;;;1.39;100.00
71059;BME280;70265;47.576;19.270;2023-11-22T01:54:25;98585.72;;;1.46;100.00
71059;BME280;70265;47.576;19.270;2023-11-22T01:55:29;98585.41;;;1.51;100.00
71059;BME280;70265;47.576;19.270;2023-11-22T01:56:31;98589.66;;;1.52;100.00
71059;BME280;70265;47.576;19.270;2023-11-22T01:57:35;98589.44;;;1.42;100.00
71059;BME280;70265;47.576;19.270;2023-11-22T01:58:36;98586.88;;;1.42;100.00
71059;BME280;70265;47.576;19.270;2023-11-22T01:59:42;98588.41;;;1.32;100.00
71059;BME280;70265;47.576;19.270;2023-11-22T02:00:49;98593.97;;;1.26;100.00
71059;BME280;70265;47.576;19.270;2023-11-22T02:01:53;98590.56;;;1.26;100.00
71059;BME280;70265;47.576;19.270;2023-11-22T02:02:54;98592.69;;;1.19;100.00
71059;BME280;70265;47.576;19.270;2023-11-22T02:03:58;98587.66;;;1.18;100.00
71059;BME280;70265;47.576;19.270;2023-11-22T02:04:59;98593.13;;;1.13;100.00
71059;BME280;70265;47.576;19.270;2023-11-22T02:06:04;98588.69;;;1.15;100.00
71059;BME280;70265;47.576;19.270;2023-11-22T02:07:06;98595.28;;;1.19;100.00
71059;BME280;70265;47.576;19.270;2023-11-22T02:08:07;98595.69;;;1.13;100.00
71059;BME280;70265;47.576;19.270;2023-11-22T02:09:10;98589.63;;;1.14;100.00
71059;BME280;70265;47.576;19.270;2023-11-22T02:10:18;98591.97;;;1.05;100.00
71059;BME280;70265;47.576;19.270;2023-11-22T02:11:24;98596.09;;;1.07;100.00
71059;BME280;70265;47.576;19.270;2023-11-22T02:12:26;98589.81;;;1.11;100.00
71059;BME280;70265;47.576;19.270;2023-11-22T02:13:30;98590.25;;;1.18;100.00
71059;BME280;70265;47.576;19.270;2023-11-22T02:14:31;98589.63;;;1.14;100.00
71059;BME280;70265;47.576;19.270;2023-11-22T02:15:35;98589.94;;;1.22;100.00
71059;BME280;70265;47.576;19.270;2023-11-22T02:16:37;98598.06;;;1.16;100.00
71059;BME280;70265;47.576;19.270;2023-11-22T02:17:41;98587.75;;;1.16;100.00
71059;BME280;70265;47.576;19.270;2023-11-22T02:18:43;98592.09;;;1.16;100.00
71059;BME280;70265;47.576;19.270;2023-11-22T02:19:47;98596.53;;;1.14;100.00
71059;BME280;70265;47.576;19.270;2023-11-22T02:20:49;98588.97;;;1.11;100.00
71059;BME280;70265;47.576;19.270;2023-11-22T02:21:52;98599.03;;;1.15;100.00
71059;BME280;70265;47.576;19.270;2023-11-22T02:22:54;98597.34;;;1.14;100.00
71059;BME280;70265;47.576;19.270;2023-11-22T02:24:01;98598.81;;;1.18;100.00
71059;BME280;70265;47.576;19.270;2023-11-22T02:25:05;98602.75;;;1.24;100.00
71059;BME280;70265;47.576;19.270;2023-11-22T02:26:10;98611.88;;;1.29;100.00
71059;BME280;70265;47.576;19.270;2023-11-22T02:27:11;98601.41;;;1.31;100.00
71059;BME280;70265;47.576;19.270;2023-11-22T02:28:15;98603.06;;;1.32;100.00
71059;BME280;70265;47.576;19.270;2023-11-22T02:29:17;98604.63;;;1.34;100.00
71059;BME280;70265;47.576;19.270;2023-11-22T02:30:20;98607.84;;;1.38;100.00
71059;BME280;70265;47.576;19.270;2023-11-22T02:31:22;98601.94;;;1.36;100.00
71059;BME280;70265;47.576;19.270;2023-11-22T02:32:28;98607.84;;;1.38;100.00
71059;BME280;70265;47.576;19.270;2023-11-22T02:33:30;98595.53;;;1.41;100.00
71059;BME280;70265;47.576;19.270;2023-11-22T02:34:34;98594.72;;;1.41;100.00
71059;BME280;70265;47.576;19.270;2023-11-22T02:35:35;98603.28;;;1.41;100.00
71059;BME280;70265;47.576;19.270;2023-11-22T02:36:39;98600.72;;;1.41;100.00
71059;BME280;70265;47.576;19.270;2023-11-22T02:37:42;98604.22;;;1.40;100.00
71059;BME280;70265;47.576;19.270;2023-11-22T02:38:49;98596.38;;;1.42;100.00
71059;BME280;70265;47.576;19.270;2023-11-22T02:39:58;98607.53;;;1.42;100.00
71059;BME280;70265;47.576;19.270;2023-11-22T02:41:06;98597.19;;;1.42;100.00
71059;BME280;70265;47.576;19.270;2023-11-22T02:42:07;98606.91;;;1.39;100.00
71059;BME280;70265;47.576;19.270;2023-11-22T02:43:11;98604.53;;;1.36;100.00
71059;BME280;70265;47.576;19.270;2023-11-22T02:44:12;98605.53;;;1.33;100.00
71059;BME280;70265;47.576;19.270;2023-11-22T02:45:20;98604.63;;;1.34;100.00
71059;BME280;70265;47.576;19.270;2023-11-22T02:46:23;98596.88;;;1.34;100.00
71059;BME280;70265;47.576;19.270;2023-11-22T02:47:24;98606.88;;;1.26;100.00
71059;BME280;70265;47.576;19.270;2023-11-22T02:48:28;98608.44;;;1.29;100.00
71059;BME280;70265;47.576;19.270;2023-11-22T02:49:29;98602.66;;;1.25;100.00
71059;BME280;70265;47.576;19.270;2023-11-22T02:50:33;98611.31;;;1.24;100.00
71059;BME280;70265;47.576;19.270;2023-11-22T02:51:35;98613.06;;;1.24;100.00
71059;BME280;70265;47.576;19.270;2023-11-22T02:52:38;98611.41;;;1.23;100.00
71059;BME280;70265;47.576;19.270;2023-11-22T02:53:40;98617.81;;;1.17;100.00
71059;BME280;70265;47.576;19.270;2023-11-22T02:54:46;98613.16;;;1.10;100.00
71059;BME280;70265;47.576;19.270;2023-11-22T02:55:50;98619.34;;;1.07;100.00
71059;BME280;70265;47.576;19.270;2023-11-22T02:56:51;98615.09;;;1.06;100.00
71059;BME280;70265;47.576;19.270;2023-11-22T02:57:56;98623.69;;;1.07;100.00
71059;BME280;70265;47.576;19.270;2023-11-22T02:58:57;98618.44;;;1.08;100.00
71059;BME280;70265;47.576;19.270;2023-11-22T03:00:01;98624.28;;;0.97;100.00
71059;BME280;70265;47.576;19.270;2023-11-22T03:01:02;98616.63;;;0.96;100.00
71059;BME280;70265;47.576;19.270;2023-11-22T03:02:05;98624.00;;;1.02;100.00
71059;BME280;70265;47.576;19.270;2023-11-22T03:03:07;98626.56;;;1.02;100.00
71059;BME280;70265;47.576;19.270;2023-11-22T03:04:12;98626.66;;;1.00;100.00
71059;BME280;70265;47.576;19.270;2023-11-22T03:05:14;98629.31;;;0.99;100.00
71059;BME280;70265;47.576;19.270;2023-11-22T03:06:18;98629.25;;;1.00;100.00
71059;BME280;70265;47.576;19.270;2023-11-22T03:07:19;98627.19;;;1.06;100.00
71059;BME280;70265;47.576;19.270;2023-11-22T03:08:24;98627.94;;;1.08;100.00
71059;BME280;70265;47.576;19.270;2023-11-22T03:09:25;98632.03;;;0.97;100.00
71059;BME280;70265;47.576;19.270;2023-11-22T03:10:28;98637.28;;;0.96;100.00
71059;BME280;70265;47.576;19.270;2023-11-22T03:11:33;98637.81;;;1.01;100.00
71059;BME280;70265;47.576;19.270;2023-11-22T03:12:37;98631.44;;;1.07;100.00
71059;BME280;70265;47.576;19.270;2023-11-22T03:13:38;98644.97;;;1.10;100.00
71059;BME280;70265;47.576;19.270;2023-11-22T03:14:42;98635.38;;;1.12;100.00
71059;BME280;70265;47.576;19.270;2023-11-22T03:15:43;98637.50;;;1.06;100.00
71059;BME280;70265;47.576;19.270;2023-11-22T03:16:47;98639.72;;;1.12;100.00
71059;BME280;70265;47.576;19.270;2023-11-22T03:17:49;98641.56;;;1.10;100.00
71059;BME280;70265;47.576;19.270;2023-11-22T03:18:52;98642.28;;;1.12;100.00
71059;BME280;70265;47.576;19.270;2023-11-22T03:19:55;98644.06;;;1.11;100.00
71059;BME280;70265;47.576;19.270;2023-11-22T03:20:59;98637.22;;;1.10;100.00
71059;BME280;70265;47.576;19.270;2023-11-22T03:22:02;98638.06;;;1.11;100.00
71059;BME280;70265;47.576;19.270;2023-11-22T03:23:07;98648.28;;;1.12;100.00
71059;BME280;70265;47.576;19.270;2023-11-22T03:24:11;98650.69;;;1.15;100.00
71059;BME280;70265;47.576;19.270;2023-11-22T03:25:16;98647.06;;;1.18;100.00
71059;BME280;70265;47.576;19.270;2023-11-22T03:26:17;98649.34;;;1.22;100.00
71059;BME280;70265;47.576;19.270;2023-11-22T03:27:23;98646.56;;;1.25;100.00
71059;BME280;70265;47.576;19.270;2023-11-22T03:28:24;98649.88;;;1.27;100.00
71059;BME280;70265;47.576;19.270;2023-11-22T03:29:32;98652.38;;;1.29;100.00
71059;BME280;70265;47.576;19.270;2023-11-22T03:30:34;98657.41;;;1.30;100.00
71059;BME280;70265;47.576;19.270;2023-11-22T03:31:38;98660.00;;;1.30;100.00
71059;BME280;70265;47.576;19.270;2023-11-22T03:32:40;98663.34;;;1.32;100.00
71059;BME280;70265;47.576;19.270;2023-11-22T03:33:44;98652.16;;;1.32;100.00
71059;BME280;70265;47.576;19.270;2023-11-22T03:34:46;98658.16;;;1.32;100.00
71059;BME280;70265;47.576;19.270;2023-11-22T03:35:49;98658.78;;;1.36;100.00
71059;BME280;70265;47.576;19.270;2023-11-22T03:36:51;98662.00;;;1.39;100.00
71059;BME280;70265;47.576;19.270;2023-11-22T03:37:54;98662.81;;;1.40;100.00
71059;BME280;70265;47.576;19.270;2023-11-22T03:38:55;98659.59;;;1.36;100.00
71059;BME280;70265;47.576;19.270;2023-11-22T03:39:59;98659.41;;;1.39;100.00
71059;BME280;70265;47.576;19.270;2023-11-22T03:41:00;98667.06;;;1.41;100.00
71059;BME280;70265;47.576;19.270;2023-11-22T03:42:06;98665.81;;;1.46;100.00
71059;BME280;70265;47.576;19.270;2023-11-22T03:43:09;98668.22;;;1.49;100.00
71059;BME280;70265;47.576;19.270;2023-11-22T03:44:13;98664.19;;;1.45;100.00
71059;BME280;70265;47.576;19.270;2023-11-22T03:45:17;98663.97;;;1.48;100.00
71059;BME280;70265;47.576;19.270;2023-11-22T03:46:19;98669.16;;;1.48;100.00
71059;BME280;70265;47.576;19.270;2023-11-22T03:47:23;98669.84;;;1.50;100.00
71059;BME280;70265;47.576;19.270;2023-11-22T03:48:24;98667.28;;;1.50;100.00
71059;BME280;70265;47.576;19.270;2023-11-22T03:49:29;98672.16;;;1.55;100.00
71059;BME280;70265;47.576;19.270;2023-11-22T03:50:30;98672.88;;;1.57;100.00
71059;BME280;70265;47.576;19.270;2023-11-22T03:51:34;98670.19;;;1.59;100.00
71059;BME280;70265;47.576;19.270;2023-11-22T03:52:36;98666.69;;;1.60;100.00
71059;BME280;70265;47.576;19.270;2023-11-22T03:53:39;98665.66;;;1.62;100.00
71059;BME280;70265;47.576;19.270;2023-11-22T03:54:40;98671.44;;;1.66;100.00
71059;BME280;70265;47.576;19.270;2023-11-22T03:55:44;98673.91;;;1.67;100.00
71059;BME280;70265;47.576;19.270;2023-11-22T03:56:45;98670.31;;;1.70;100.00
71059;BME280;70265;47.576;19.270;2023-11-22T03:57:49;98675.38;;;1.71;100.00
71059;BME280;70265;47.576;19.270;2023-11-22T03:58:53;98680.44;;;1.73;100.00
71059;BME280;70265;47.576;19.270;2023-11-22T03:59:56;98675.28;;;1.73;100.00
71059;BME280;70265;47.576;19.270;2023-11-22T04:00:58;98681.16;;;1.75;100.00
71059;BME280;70265;47.576;19.270;2023-11-22T04:02:03;98678.50;;;1.76;100.00
71059;BME280;70265;47.576;19.270;2023-11-22T04:03:04;98680.03;;;1.79;100.00
71059;BME280;70265;47.576;19.270;2023-11-22T04:04:08;98675.56;;;1.81;100.00
71059;BME280;70265;47.576;19.270;2023-11-22T04:05:10;98678.91;;;1.83;100.00
71059;BME280;70265;47.576;19.270;2023-11-22T04:06:14;98679.75;;;1.83;100.00
71059;BME280;70265;47.576;19.270;2023-11-22T04:07:17;98677.78;;;1.87;100.00
71059;BME280;70265;47.576;19.270;2023-11-22T04:08:21;98669.91;;;1.88;100.00
71059;BME280;70265;47.576;19.270;2023-11-22T04:09:22;98669.81;;;1.90;100.00
71059;BME280;70265;47.576;19.270;2023-11-22T04:10:25;98667.94;;;1.92;100.00
71059;BME280;70265;47.576;19.270;2023-11-22T04:11:26;98676.44;;;1.94;100.00
71059;BME280;70265;47.576;19.270;2023-11-22T04:12:31;98671.16;;;1.95;100.00
71059;BME280;70265;47.576;19.270;2023-11-22T04:13:33;98675.41;;;1.96;100.00
71059;BME280;70265;47.576;19.270;2023-11-22T04:14:39;98680.44;;;1.98;100.00
71059;BME280;70265;47.576;19.270;2023-11-22T04:15:41;98674.34;;;1.99;100.00
71059;BME280;70265;47.576;19.270;2023-11-22T04:16:45;98684.41;;;2.03;100.00
71059;BME280;70265;47.576;19.270;2023-11-22T04:17:46;98683.44;;;2.04;100.00
71059;BME280;70265;47.576;19.270;2023-11-22T04:18:50;98684.19;;;2.07;100.00
71059;BME280;70265;47.576;19.270;2023-11-22T04:19:51;98689.25;;;2.08;100.00
71059;BME280;70265;47.576;19.270;2023-11-22T04:20:55;98699.38;;;2.11;100.00
71059;BME280;70265;47.576;19.270;2023-11-22T04:21:58;98698.38;;;2.14;100.00
71059;BME280;70265;47.576;19.270;2023-11-22T04:23:02;98700.84;;;2.15;100.00
71059;BME280;70265;47.576;19.270;2023-11-22T04:24:04;98700.84;;;2.15;100.00
71059;BME280;70265;47.576;19.270;2023-11-22T04:25:08;98698.25;;;2.15;100.00
71059;BME280;70265;47.576;19.270;2023-11-22T04:26:09;98698.03;;;2.18;100.00
71059;BME280;70265;47.576;19.270;2023-11-22T04:27:13;98698.88;;;2.19;100.00
71059;BME280;70265;47.576;19.270;2023-11-22T04:28:15;98705.78;;;2.18;100.00
71059;BME280;70265;47.576;19.270;2023-11-22T04:29:19;98699.91;;;2.16;100.00
71059;BME280;70265;47.576;19.270;2023-11-22T04:30:23;98696.63;;;2.14;100.00
71059;BME280;70265;47.576;19.270;2023-11-22T04:31:27;98704.56;;;2.11;100.00
71059;BME280;70265;47.576;19.270;2023-11-22T04:32:28;98700.53;;;2.07;100.00
71059;BME280;70265;47.576;19.270;2023-11-22T04:33:29;98704.88;;;2.07;100.00
71059;BME280;70265;47.576;19.270;2023-11-22T04:34:33;98707.56;;;2.05;100.00
71059;BME280;70265;47.576;19.270;2023-11-22T04:35:35;98707.69;;;2.03;100.00
71059;BME280;70265;47.576;19.270;2023-11-22T04:36:38;98703.53;;;2.01;100.00
71059;BME280;70265;47.576;19.270;2023-11-22T04:37:42;98704.69;;;1.97;100.00
71059;BME280;70265;47.576;19.270;2023-11-22T04:38:43;98703.94;;;1.95;100.00
71059;BME280;70265;47.576;19.270;2023-11-22T04:39:47;98714.59;;;1.90;100.00
71059;BME280;70265;47.576;19.270;2023-11-22T04:40:52;98707.56;;;1.92;100.00
71059;BME280;70265;47.576;19.270;2023-11-22T04:41:56;98711.06;;;1.91;100.00
71059;BME280;70265;47.576;19.270;2023-11-22T04:42:57;98711.19;;;1.90;100.00
71059;BME280;70265;47.576;19.270;2023-11-22T04:43:58;98717.38;;;1.87;100.00
71059;BME280;70265;47.576;19.270;2023-11-22T04:45:03;98708.69;;;1.88;100.00
71059;BME280;70265;47.576;19.270;2023-11-22T04:46:07;98711.41;;;1.87;100.00
71059;BME280;70265;47.576;19.270;2023-11-22T04:47:12;98711.56;;;1.84;100.00
71059;BME280;70265;47.576;19.270;2023-11-22T04:48:13;98720.38;;;1.81;100.00
71059;BME280;70265;47.576;19.270;2023-11-22T04:49:17;98718.91;;;1.77;100.00
71059;BME280;70265;47.576;19.270;2023-11-22T04:50:19;98725.03;;;1.76;100.00
71059;BME280;70265;47.576;19.270;2023-11-22T04:51:24;98721.69;;;1.74;100.00
71059;BME280;70265;47.576;19.270;2023-11-22T04:52:25;98722.75;;;1.72;100.00
71059;BME280;70265;47.576;19.270;2023-11-22T04:53:29;98720.16;;;1.72;100.00
71059;BME280;70265;47.576;19.270;2023-11-22T04:54:30;98727.69;;;1.75;100.00
71059;BME280;70265;47.576;19.270;2023-11-22T04:55:34;98731.31;;;1.72;100.00
71059;BME280;70265;47.576;19.270;2023-11-22T04:56:35;98723.66;;;1.71;100.00
71059;BME280;70265;47.576;19.270;2023-11-22T04:57:39;98722.94;;;1.69;100.00
71059;BME280;70265;47.576;19.270;2023-11-22T04:58:40;98734.13;;;1.69;100.00
71059;BME280;70265;47.576;19.270;2023-11-22T04:59:45;98729.97;;;1.67;100.00
71059;BME280;70265;47.576;19.270;2023-11-22T05:00:46;98723.16;;;1.66;100.00
71059;BME280;70265;47.576;19.270;2023-11-22T05:01:53;98727.41;;;1.67;100.00
71059;BME280;70265;47.576;19.270;2023-11-22T05:02:54;98729.16;;;1.66;100.00
71059;BME280;70265;47.576;19.270;2023-11-22T05:03:58;98721.47;;;1.65;100.00
71059;BME280;70265;47.576;19.270;2023-11-22T05:04:59;98727.56;;;1.64;100.00
71059;BME280;70265;47.576;19.270;2023-11-22T05:06:03;98729.16;;;1.66;100.00
71059;BME280;70265;47.576;19.270;2023-11-22T05:07:04;98736.06;;;1.66;100.00
71059;BME280;70265;47.576;19.270;2023-11-22T05:08:08;98737.00;;;1.65;100.00
71059;BME280;70265;47.576;19.270;2023-11-22T05:09:09;98741.53;;;1.61;100.00
71059;BME280;70265;47.576;19.270;2023-11-22T05:10:14;98740.91;;;1.58;100.00
71059;BME280;70265;47.576;19.270;2023-11-22T05:11:17;98736.75;;;1.55;100.00
71059;BME280;70265;47.576;19.270;2023-11-22T05:12:21;98742.84;;;1.54;100.00
71059;BME280;70265;47.576;19.270;2023-11-22T05:13:22;98745.91;;;1.46;100.00
71059;BME280;70265;47.576;19.270;2023-11-22T05:14:26;98745.75;;;1.49;100.00
71059;BME280;70265;47.576;19.270;2023-11-22T05:15:27;98747.59;;;1.47;100.00
71059;BME280;70265;47.576;19.270;2023-11-22T05:16:31;98747.69;;;1.46;100.00
71059;BME280;70265;47.576;19.270;2023-11-22T05:17:35;98752.03;;;1.45;100.00
71059;BME280;70265;47.576;19.270;2023-11-22T05:18:36;98757.41;;;1.42;100.00
71059;BME280;70265;47.576;19.270;2023-11-22T05:19:40;98753.25;;;1.40;100.00
71059;BME280;70265;47.576;19.270;2023-11-22T05:20:41;98752.25;;;1.42;100.00
71059;BME280;70265;47.576;19.270;2023-11-22T05:21:44;98757.28;;;1.44;100.00
71059;BME280;70265;47.576;19.270;2023-11-22T05:22:45;98759.44;;;1.37;100.00
71059;BME280;70265;47.576;19.270;2023-11-22T05:23:49;98760.66;;;1.32;100.00
71059;BME280;70265;47.576;19.270;2023-11-22T05:24:50;98753.94;;;1.29;100.00
71059;BME280;70265;47.576;19.270;2023-11-22T05:25:54;98759.13;;;1.29;100.00
71059;BME280;70265;47.576;19.270;2023-11-22T05:26:55;98757.66;;;1.25;100.00
71059;BME280;70265;47.576;19.270;2023-11-22T05:27:59;98759.47;;;1.23;100.00
71059;BME280;70265;47.576;19.270;2023-11-22T05:29:00;98756.66;;;1.14;100.00